Reboucas, Brazil
Current Conditions -  °F | °C
As of 4:00 PM on Friday 19 Dec 2014 (Local Time) from SBBI Reporting Station
Rain Showers Rain Showers  
Wind Chill: 75°   Ceiling: Unl
Heat Index: 75°   Visibility: 6mi
Dew Point: 66°   Wind: 7mph
Humidity: 73%   Direction: 100°E
Pressure: 29.85"   Gusts: NA
Location:  25.62°S, 50.69°W
Report Text: SBBI 191800Z 10006KT 9999 VCSH SCT035 FEW040TCU 24/19 Q1011
Loading
Personal Weather Stations






























Interactive Weather Map New forecast layout! Learn more

10-Day Weather Forecast

Advertisements
Track Severe Weather on mobile